Time;durP1;ratioP1;P1;durP2;ratioP2;P2;SDS_P1;SDS_P2;PMS_P1;PMS_P2;Temp;Humidity;BMP_temperature;BMP_pressure;BME280_temperature;BME280_humidity;BME280_pressure;Samples;Min_cycle;Max_cycle;Signal;HPM_P1;HPM_P2
2023/08/20 00:00:27;;;;;;;0.00;0.00;;;23.40;99.90;;;;;;5045160;28;19916;-83
2023/08/20 00:03:04;;;;;;;1.30;1.25;;;23.30;99.90;;;;;;5034721;28;20056;-83
2023/08/20 00:05:31;;;;;;;0.20;0.15;;;23.40;99.90;;;;;;5038628;28;20069;-83
2023/08/20 00:07:56;;;;;;;0.00;0.00;;;23.30;99.90;;;;;;5045277;28;20010;-83
2023/08/20 00:10:22;;;;;;;0.07;0.07;;;23.30;99.90;;;;;;5035168;28;20018;-84
2023/08/20 00:12:48;;;;;;;0.00;0.00;;;23.30;99.90;;;;;;5048559;28;20037;-83
2023/08/20 00:15:13;;;;;;;0.00;0.00;;;23.30;99.90;;;;;;5027771;28;20029;-83
2023/08/20 00:17:41;;;;;;;0.20;0.20;;;23.30;99.90;;;;;;5045325;28;20039;-82
2023/08/20 00:20:18;;;;;;;0.00;0.00;;;23.20;99.90;;;;;;5039982;28;20078;-82
2023/08/20 00:22:45;;;;;;;0.00;0.00;;;23.10;99.90;;;;;;5027168;28;20028;-83
2023/08/20 00:25:11;;;;;;;0.13;0.13;;;23.00;99.90;;;;;;5045596;28;20021;-82
2023/08/20 00:27:38;;;;;;;0.30;0.30;;;23.00;99.90;;;;;;5046698;28;20025;-83
2023/08/20 00:30:04;;;;;;;0.60;0.52;;;23.10;99.90;;;;;;5040350;28;20029;-81
2023/08/20 00:32:30;;;;;;;0.38;0.38;;;23.20;99.90;;;;;;5045138;28;20041;-82
2023/08/20 00:34:56;;;;;;;0.00;0.00;;;23.10;99.90;;;;;;5043742;28;20095;-81
2023/08/20 00:37:21;;;;;;;0.00;0.00;;;23.00;99.90;;;;;;5028967;28;20025;-82
2023/08/20 00:39:47;;;;;;;0.00;0.00;;;23.10;99.90;;;;;;5022129;28;20052;-82
2023/08/20 00:42:14;;;;;;;0.10;0.10;;;23.10;99.90;;;;;;5025047;28;20025;-82
2023/08/20 00:44:41;;;;;;;0.10;0.10;;;23.00;99.90;;;;;;5046489;28;20022;-81
2023/08/20 00:47:07;;;;;;;0.30;0.20;;;22.90;99.90;;;;;;5031047;28;20056;-81
2023/08/20 00:49:34;;;;;;;36.70;2.28;;;22.90;99.90;;;;;;5044236;28;20060;-82
2023/08/20 00:52:00;;;;;;;;;;;22.90;99.90;;;;;;5047124;28;20763;-82
2023/08/20 00:54:27;;;;;;;0.30;0.20;;;22.90;99.90;;;;;;5043838;28;19998;-82
2023/08/20 00:56:53;;;;;;;0.10;0.10;;;22.90;99.90;;;;;;5048483;28;20041;-82
2023/08/20 00:59:19;;;;;;;0.00;0.00;;;22.90;99.90;;;;;;5041469;28;20025;-82
2023/08/20 01:01:45;;;;;;;;;;;22.90;99.90;;;;;;5042829;28;20043;-82
2023/08/20 01:04:11;;;;;;;0.10;0.10;;;22.80;99.90;;;;;;5028014;28;20649;-82
2023/08/20 01:06:55;;;;;;;0.00;0.00;;;22.90;99.90;;;;;;5029514;28;20040;-82
2023/08/20 01:09:33;;;;;;;0.22;0.22;;;22.80;99.90;;;;;;5026927;28;20029;-82
2023/08/20 01:12:00;;;;;;;0.32;0.32;;;22.80;99.90;;;;;;5036603;28;20032;-82
2023/08/20 01:14:26;;;;;;;0.68;0.22;;;22.80;99.90;;;;;;5023242;28;20033;-82
2023/08/20 01:16:52;;;;;;;0.00;0.00;;;22.80;99.90;;;;;;5029130;28;20044;-82
2023/08/20 01:19:19;;;;;;;0.07;0.07;;;22.70;99.90;;;;;;5045849;28;20447;-82
2023/08/20 01:22:23;;;;;;;2.47;1.70;;;22.70;99.90;;;;;;5042342;28;20086;-83
2023/08/20 01:25:28;;;;;;;0.00;0.00;;;22.70;99.90;;;;;;5034936;28;20064;-82
2023/08/20 01:28:16;;;;;;;0.10;0.10;;;22.80;99.90;;;;;;5021078;28;20021;-83
2023/08/20 01:30:43;;;;;;;0.25;0.20;;;22.50;99.90;;;;;;5032264;28;20036;-83
2023/08/20 01:33:11;;;;;;;0.00;0.00;;;22.50;99.90;;;;;;5037539;28;20032;-82
2023/08/20 01:35:37;;;;;;;0.00;0.00;;;22.50;99.90;;;;;;5043973;28;20063;-82
2023/08/20 01:38:02;;;;;;;0.10;0.10;;;22.50;99.90;;;;;;5041908;28;20040;-82
2023/08/20 01:40:28;;;;;;;1.00;0.33;;;22.40;99.90;;;;;;5019055;28;20053;-82
2023/08/20 01:42:54;;;;;;;0.10;0.10;;;22.50;99.90;;;;;;5029183;28;20033;-82
2023/08/20 01:45:21;;;;;;;0.00;0.00;;;22.40;99.90;;;;;;5044750;28;20612;-81
2023/08/20 01:47:47;;;;;;;1.33;1.27;;;22.40;99.90;;;;;;5044657;28;20578;-82
2023/08/20 01:50:12;;;;;;;0.00;0.00;;;22.40;99.90;;;;;;5038368;28;20025;-82
2023/08/20 01:52:38;;;;;;;2.90;1.83;;;22.40;99.90;;;;;;5034418;28;20156;-82
2023/08/20 01:55:05;;;;;;;0.03;0.03;;;22.30;99.90;;;;;;5046315;28;20033;-82
2023/08/20 01:57:31;;;;;;;0.00;0.00;;;22.40;99.90;;;;;;5044221;28;20037;-81
2023/08/20 01:59:58;;;;;;;0.10;0.10;;;22.20;99.90;;;;;;5024268;28;20059;-84
2023/08/20 02:02:24;;;;;;;0.00;0.00;;;22.00;99.90;;;;;;5042703;28;20037;-86
2023/08/20 02:04:49;;;;;;;0.77;0.38;;;22.00;99.90;;;;;;5019345;28;20037;-83
2023/08/20 02:07:15;;;;;;;0.00;0.00;;;22.20;99.90;;;;;;5038191;28;20034;-84
2023/08/20 02:09:41;;;;;;;0.00;0.00;;;22.30;99.90;;;;;;5046070;28;20089;-85
2023/08/20 02:12:07;;;;;;;0.00;0.00;;;22.30;99.90;;;;;;5033224;28;20357;-85
2023/08/20 02:14:35;;;;;;;0.00;0.00;;;22.20;99.90;;;;;;5034220;28;20030;-85
2023/08/20 02:17:02;;;;;;;0.00;0.00;;;22.10;99.90;;;;;;5019774;28;20132;-85
2023/08/20 02:19:27;;;;;;;0.00;0.00;;;22.10;99.90;;;;;;5045952;28;20037;-84
2023/08/20 02:21:53;;;;;;;0.10;0.10;;;22.10;99.90;;;;;;5039407;28;20041;-82
2023/08/20 02:24:19;;;;;;;0.00;0.00;;;22.10;99.90;;;;;;5044891;28;20033;-82
2023/08/20 02:26:45;;;;;;;0.00;0.00;;;22.10;99.90;;;;;;5042545;28;20041;-81
2023/08/20 02:29:10;;;;;;;0.00;0.00;;;22.00;99.90;;;;;;5046148;28;20033;-81
2023/08/20 02:31:36;;;;;;;0.00;0.00;;;22.00;99.90;;;;;;5044685;28;20115;-82
2023/08/20 02:34:02;;;;;;;3.30;0.50;;;22.00;99.90;;;;;;5037823;28;20041;-83
2023/08/20 02:36:28;;;;;;;0.00;0.00;;;21.90;99.90;;;;;;5046029;28;20040;-84
2023/08/20 02:38:53;;;;;;;0.00;0.00;;;21.90;99.90;;;;;;5046751;28;20033;-83
2023/08/20 02:41:19;;;;;;;0.00;0.00;;;21.80;99.90;;;;;;5042551;28;20404;-84
2023/08/20 02:43:45;;;;;;;0.00;0.00;;;21.70;99.90;;;;;;5027658;28;20040;-83
2023/08/20 02:46:11;;;;;;;0.00;0.00;;;21.80;99.90;;;;;;5039918;28;20026;-82
2023/08/20 02:48:37;;;;;;;0.00;0.00;;;21.70;99.90;;;;;;5044338;28;20535;-85
2023/08/20 02:51:03;;;;;;;0.00;0.00;;;21.70;99.90;;;;;;5042165;28;20531;-82
2023/08/20 02:53:29;;;;;;;0.00;0.00;;;21.70;99.90;;;;;;5022808;28;20058;-85
2023/08/20 02:55:56;;;;;;;0.00;0.00;;;21.60;99.90;;;;;;5034601;28;20041;-83
2023/08/20 02:58:22;;;;;;;0.13;0.13;;;21.70;99.90;;;;;;5042929;28;20070;-83
2023/08/20 03:00:47;;;;;;;0.32;0.20;;;21.70;99.90;;;;;;5044383;28;20072;-83
2023/08/20 03:03:13;;;;;;;0.13;0.13;;;21.60;99.90;;;;;;5028752;28;20025;-83
2023/08/20 03:05:39;;;;;;;0.00;0.00;;;21.50;99.90;;;;;;5048901;28;20825;-83
2023/08/20 03:08:06;;;;;;;0.28;0.28;;;21.60;99.90;;;;;;5049257;28;20021;-84
2023/08/20 03:10:32;;;;;;;0.00;0.00;;;21.50;99.90;;;;;;5029540;28;20033;-83
2023/08/20 03:12:59;;;;;;;0.10;0.10;;;21.60;99.90;;;;;;5047769;28;20669;-83
2023/08/20 03:15:24;;;;;;;0.73;0.35;;;21.50;99.90;;;;;;5046444;28;20037;-84
2023/08/20 03:17:50;;;;;;;0.00;0.00;;;21.50;99.90;;;;;;5046834;28;20036;-84
2023/08/20 03:20:16;;;;;;;2.13;1.67;;;21.50;99.90;;;;;;5047355;28;20056;-82
2023/08/20 03:22:41;;;;;;;0.00;0.00;;;21.40;99.90;;;;;;5044206;28;20090;-83
2023/08/20 03:25:07;;;;;;;0.20;0.20;;;21.50;99.90;;;;;;5044092;28;20036;-83
2023/08/20 03:27:33;;;;;;;0.00;0.00;;;21.50;99.90;;;;;;5043092;28;20507;-82
2023/08/20 03:29:59;;;;;;;0.00;0.00;;;21.50;99.90;;;;;;5043326;28;20255;-83
2023/08/20 03:32:25;;;;;;;1.60;0.30;;;21.30;99.90;;;;;;5023960;28;20037;-82
2023/08/20 03:34:53;;;;;;;0.17;0.17;;;21.30;99.90;;;;;;5042356;28;20108;-84
2023/08/20 03:37:19;;;;;;;0.00;0.00;;;21.30;99.90;;;;;;5041098;28;20028;-83
2023/08/20 03:39:44;;;;;;;0.20;0.20;;;21.20;99.90;;;;;;5042208;28;20029;-82
2023/08/20 03:42:10;;;;;;;0.00;0.00;;;21.20;99.90;;;;;;5049679;28;20570;-83
2023/08/20 03:44:36;;;;;;;4.10;1.27;;;21.20;99.90;;;;;;5050031;28;20029;-83
2023/08/20 03:47:02;;;;;;;0.20;0.20;;;21.10;99.90;;;;;;5049344;28;20820;-83
2023/08/20 03:49:27;;;;;;;0.00;0.00;;;21.10;99.90;;;;;;5029420;28;20040;-84
2023/08/20 03:51:53;;;;;;;0.00;0.00;;;21.10;99.90;;;;;;5048210;28;20033;-84
2023/08/20 03:54:19;;;;;;;0.00;0.00;;;21.10;99.90;;;;;;5030982;28;20059;-84
2023/08/20 03:56:45;;;;;;;0.00;0.00;;;21.10;99.90;;;;;;5037847;28;20448;-83
2023/08/20 03:59:11;;;;;;;0.63;0.63;;;21.10;99.90;;;;;;5047794;28;20044;-84
2023/08/20 04:01:37;;;;;;;0.00;0.00;;;21.00;99.90;;;;;;5031363;28;20115;-84
2023/08/20 04:04:03;;;;;;;0.28;0.28;;;21.10;99.90;;;;;;5024678;28;20121;-83
2023/08/20 04:06:29;;;;;;;;;;;21.00;99.90;;;;;;5027972;28;20021;-83
2023/08/20 04:08:55;;;;;;;0.00;0.00;;;21.00;99.90;;;;;;5030905;28;19983;-82
2023/08/20 04:11:20;;;;;;;0.00;0.00;;;21.00;99.90;;;;;;5044470;28;20033;-83
2023/08/20 04:13:46;;;;;;;1.50;0.20;;;21.00;99.90;;;;;;5039705;28;20034;-83
2023/08/20 04:16:12;;;;;;;0.00;0.00;;;21.00;99.90;;;;;;5043823;28;20037;-83
2023/08/20 04:18:38;;;;;;;0.00;0.00;;;20.90;99.90;;;;;;5043191;28;20524;-82
2023/08/20 04:21:04;;;;;;;0.00;0.00;;;21.00;99.90;;;;;;5048709;28;20100;-84
2023/08/20 04:23:30;;;;;;;0.20;0.20;;;21.00;99.90;;;;;;5043809;28;20485;-83
2023/08/20 04:25:55;;;;;;;0.10;0.10;;;21.00;99.90;;;;;;5042724;28;20032;-82
2023/08/20 04:28:21;;;;;;;0.47;0.47;;;21.00;99.90;;;;;;5036849;28;20091;-83
2023/08/20 04:30:46;;;;;;;0.57;0.57;;;21.00;99.90;;;;;;5041931;28;20063;-83
2023/08/20 04:33:12;;;;;;;0.00;0.00;;;21.00;99.90;;;;;;5035221;28;20022;-83
2023/08/20 04:35:38;;;;;;;0.00;0.00;;;21.10;99.90;;;;;;5020806;28;20468;-84
2023/08/20 04:38:03;;;;;;;0.00;0.00;;;21.00;99.90;;;;;;5033260;28;20025;-83
2023/08/20 04:40:29;;;;;;;0.00;0.00;;;20.90;99.90;;;;;;5037779;28;20524;-84
2023/08/20 04:42:55;;;;;;;0.50;0.50;;;20.90;99.90;;;;;;5048567;28;20676;-82
2023/08/20 04:45:20;;;;;;;0.43;0.20;;;20.80;99.90;;;;;;5047978;28;20404;-83
2023/08/20 04:47:46;;;;;;;2.33;0.60;;;20.90;99.90;;;;;;5048034;28;20103;-84
2023/08/20 04:50:13;;;;;;;0.00;0.00;;;20.80;99.90;;;;;;5047250;28;20044;-86
2023/08/20 04:52:39;;;;;;;0.00;0.00;;;20.90;99.90;;;;;;5029749;28;20045;-86
2023/08/20 04:55:06;;;;;;;0.00;0.00;;;20.80;99.90;;;;;;5042497;28;20068;-85
2023/08/20 04:57:31;;;;;;;;;;;20.80;99.90;;;;;;5046145;28;20068;-83
2023/08/20 04:59:57;;;;;;;0.88;0.80;;;20.80;99.90;;;;;;5045026;28;19943;-86
2023/08/20 05:02:23;;;;;;;0.00;0.00;;;20.80;99.90;;;;;;5044011;28;20040;-83
2023/08/20 05:04:49;;;;;;;0.00;0.00;;;20.80;99.90;;;;;;5019843;28;20044;-84
2023/08/20 05:07:14;;;;;;;0.00;0.00;;;20.80;99.90;;;;;;5026733;28;20055;-87
2023/08/20 05:09:40;;;;;;;0.00;0.00;;;20.80;99.90;;;;;;5045279;28;20021;-86
2023/08/20 05:12:06;;;;;;;0.53;0.40;;;20.90;99.90;;;;;;5043546;28;20028;-85
2023/08/20 05:14:32;;;;;;;0.08;0.08;;;21.00;99.90;;;;;;5041588;28;20052;-86
2023/08/20 05:16:59;;;;;;;0.00;0.00;;;21.20;99.90;;;;;;5043330;28;20053;-85
2023/08/20 05:19:25;;;;;;;0.00;0.00;;;21.40;99.90;;;;;;5027873;28;20037;-84
2023/08/20 05:21:52;;;;;;;0.30;0.27;;;21.50;99.90;;;;;;5026928;28;20033;-84
2023/08/20 05:24:18;;;;;;;0.20;0.20;;;21.90;99.90;;;;;;5028133;28;20841;-87
2023/08/20 05:26:43;;;;;;;0.00;0.00;;;22.20;99.90;;;;;;5041060;28;20134;-85
2023/08/20 05:29:09;;;;;;;0.00;0.00;;;22.50;99.90;;;;;;5048671;28;20035;-86
2023/08/20 05:31:35;;;;;;;0.00;0.00;;;22.80;99.90;;;;;;5028435;28;20043;-85
2023/08/20 05:34:00;;;;;;;1.17;0.90;;;22.90;99.90;;;;;;5046841;28;20037;-84
2023/08/20 05:36:26;;;;;;;0.10;0.10;;;23.00;99.90;;;;;;5045715;28;20045;-85
2023/08/20 05:38:52;;;;;;;0.00;0.00;;;23.30;99.90;;;;;;5045119;28;20037;-85
2023/08/20 05:41:17;;;;;;;0.00;0.00;;;23.30;99.90;;;;;;5047155;28;20053;-85
2023/08/20 05:43:43;;;;;;;0.40;0.33;;;23.60;99.90;;;;;;5027420;28;20029;-86
2023/08/20 05:46:09;;;;;;;0.00;0.00;;;23.80;99.90;;;;;;5026343;28;20029;-85
2023/08/20 05:48:34;;;;;;;0.00;0.00;;;23.80;99.90;;;;;;5044832;28;20320;-85
2023/08/20 05:51:00;;;;;;;0.00;0.00;;;23.90;99.90;;;;;;5044178;28;20052;-85
2023/08/20 05:53:26;;;;;;;0.03;0.03;;;24.20;99.90;;;;;;5047413;28;20056;-84
2023/08/20 05:55:51;;;;;;;0.00;0.00;;;24.30;99.90;;;;;;5043633;28;20114;-84
2023/08/20 05:58:17;;;;;;;0.00;0.00;;;24.40;99.90;;;;;;5043417;28;20120;-85
2023/08/20 06:00:43;;;;;;;1.23;1.23;;;24.60;99.90;;;;;;5042891;28;20029;-84
2023/08/20 06:03:08;;;;;;;0.00;0.00;;;25.10;99.90;;;;;;5048748;28;21033;-85
2023/08/20 06:05:34;;;;;;;0.00;0.00;;;24.70;99.90;;;;;;5035158;28;20029;-84
2023/08/20 06:08:00;;;;;;;0.20;0.13;;;25.10;99.90;;;;;;5029696;28;20899;-84
2023/08/20 06:10:26;;;;;;;11.25;1.30;;;25.50;99.90;;;;;;5047174;28;20511;-85
2023/08/20 06:12:52;;;;;;;0.00;0.00;;;25.60;99.90;;;;;;5028647;28;20061;-85
2023/08/20 06:15:18;;;;;;;0.38;0.28;;;25.80;99.90;;;;;;5029907;28;20091;-85
2023/08/20 06:17:43;;;;;;;0.00;0.00;;;26.10;99.90;;;;;;5044827;28;20113;-85
2023/08/20 06:20:11;;;;;;;0.00;0.00;;;26.20;99.90;;;;;;5039543;28;20500;-85
2023/08/20 06:22:37;;;;;;;3.13;1.83;;;26.20;99.90;;;;;;5045936;28;20025;-85
2023/08/20 06:25:04;;;;;;;0.00;0.00;;;26.30;99.90;;;;;;5025844;28;20114;-85
2023/08/20 06:27:30;;;;;;;0.00;0.00;;;26.50;99.90;;;;;;5045580;28;20500;-85
2023/08/20 06:29:55;;;;;;;0.00;0.00;;;27.00;98.20;;;;;;5028051;28;20106;-86
2023/08/20 06:32:21;;;;;;;0.00;0.00;;;26.90;98.20;;;;;;5045093;28;20040;-86
2023/08/20 06:34:47;;;;;;;0.00;0.00;;;27.30;97.90;;;;;;5047299;28;20033;-87
2023/08/20 06:37:12;;;;;;;0.10;0.10;;;27.20;97.20;;;;;;5024094;28;20037;-87
2023/08/20 06:39:38;;;;;;;0.00;0.00;;;27.50;96.90;;;;;;5036721;28;20029;-88
2023/08/20 06:42:04;;;;;;;0.00;0.00;;;27.80;96.70;;;;;;5029269;28;20033;-87
2023/08/20 06:44:30;;;;;;;0.43;0.43;;;28.30;95.50;;;;;;5028337;28;20025;-85
2023/08/20 06:46:55;;;;;;;0.08;0.08;;;28.20;94.90;;;;;;5050124;28;20070;-85
2023/08/20 06:49:21;;;;;;;0.00;0.00;;;28.50;94.20;;;;;;5049565;28;20048;-85
2023/08/20 06:51:47;;;;;;;0.00;0.00;;;28.50;94.10;;;;;;5050635;28;20037;-85
2023/08/20 06:54:14;;;;;;;1.25;0.20;;;28.90;92.90;;;;;;5046896;28;20053;-85
2023/08/20 06:56:39;;;;;;;0.00;0.00;;;29.10;93.50;;;;;;5030781;28;20041;-85
2023/08/20 06:59:05;;;;;;;0.10;0.10;;;28.90;92.50;;;;;;5050983;28;20822;-85
2023/08/20 07:01:31;;;;;;;;;;;29.00;92.30;;;;;;5033738;28;20032;-85
2023/08/20 07:03:56;;;;;;;;;;;29.20;92.00;;;;;;5050220;28;19909;-86
2023/08/20 07:06:22;;;;;;;;;;;29.50;91.40;;;;;;5048264;28;19916;-85
2023/08/20 07:08:47;;;;;;;;;;;29.50;91.40;;;;;;5047028;28;19952;-85
2023/08/20 07:11:13;;;;;;;0.00;0.00;;;29.10;90.90;;;;;;5050180;28;19909;-85
2023/08/20 07:13:39;;;;;;;0.00;0.00;;;29.50;90.70;;;;;;5045376;28;20034;-86
2023/08/20 07:16:04;;;;;;;;;;;29.90;90.20;;;;;;5050776;28;20039;-85
2023/08/20 07:18:30;;;;;;;0.00;0.00;;;29.90;90.10;;;;;;5026714;28;20398;-86
2023/08/20 07:20:56;;;;;;;;;;;30.00;89.30;;;;;;5045152;28;20059;-86
2023/08/20 07:23:22;;;;;;;0.00;0.00;;;30.60;89.20;;;;;;5031795;28;19913;-87
2023/08/20 07:25:52;;;;;;;0.00;0.00;;;31.30;83.90;;;;;;5019624;28;20033;-87
2023/08/20 07:28:26;;;;;;;0.00;0.00;;;31.10;86.00;;;;;;5025841;28;20060;-86
2023/08/20 07:30:52;;;;;;;0.00;0.00;;;31.60;84.60;;;;;;5026577;28;20399;-86
2023/08/20 07:33:18;;;;;;;0.00;0.00;;;31.30;82.70;;;;;;5049817;28;20112;-85
2023/08/20 07:35:43;;;;;;;0.00;0.00;;;31.70;83.70;;;;;;5041922;28;20033;-86
2023/08/20 07:38:09;;;;;;;0.00;0.00;;;32.10;80.40;;;;;;5041576;28;20065;-87
2023/08/20 07:40:36;;;;;;;1.13;0.15;;;32.60;79.40;;;;;;5041300;28;20025;-86
2023/08/20 07:43:02;;;;;;;0.00;0.00;;;33.00;77.10;;;;;;5036037;28;20283;-86
2023/08/20 07:45:27;;;;;;;0.00;0.00;;;32.70;76.00;;;;;;5032043;28;20034;-85
2023/08/20 07:47:53;;;;;;;0.00;0.00;;;33.80;75.70;;;;;;5049362;28;20056;-86
2023/08/20 07:50:19;;;;;;;1.45;0.75;;;33.20;75.10;;;;;;5032214;28;20032;-86
2023/08/20 07:52:44;;;;;;;0.00;0.00;;;33.80;74.30;;;;;;5030863;28;20887;-86
2023/08/20 07:55:10;;;;;;;0.00;0.00;;;34.10;71.70;;;;;;5051239;28;20903;-86
2023/08/20 07:57:36;;;;;;;0.65;0.65;;;34.90;71.70;;;;;;5045565;28;20033;-85
2023/08/20 08:00:04;;;;;;;0.00;0.00;;;35.00;71.40;;;;;;5050195;28;20029;-86
2023/08/20 08:02:29;;;;;;;1.65;1.20;;;35.10;69.40;;;;;;5029261;28;20033;-86
2023/08/20 08:04:55;;;;;;;0.00;0.00;;;34.80;67.60;;;;;;5053498;28;20021;-86
2023/08/20 08:07:20;;;;;;;0.00;0.00;;;35.50;68.80;;;;;;5045309;28;20033;-86
2023/08/20 08:09:46;;;;;;;0.15;0.15;;;36.50;66.30;;;;;;5050246;28;20036;-86
2023/08/20 08:12:12;;;;;;;0.00;0.00;;;36.50;66.40;;;;;;5041220;28;20034;-86
2023/08/20 08:14:37;;;;;;;0.00;0.00;;;37.00;64.10;;;;;;5049399;28;20040;-86
2023/08/20 08:17:04;;;;;;;0.00;0.00;;;36.50;63.80;;;;;;5044647;28;20563;-87
2023/08/20 08:19:29;;;;;;;0.00;0.00;;;36.30;65.40;;;;;;5026553;28;20033;-85
2023/08/20 08:21:56;;;;;;;0.00;0.00;;;36.90;66.80;;;;;;5043474;28;20029;-86
2023/08/20 08:24:21;;;;;;;0.00;0.00;;;37.30;66.60;;;;;;5031230;28;20033;-86
2023/08/20 08:26:47;;;;;;;0.00;0.00;;;36.90;62.80;;;;;;5018798;28;20087;-86
2023/08/20 08:29:13;;;;;;;0.00;0.00;;;37.30;62.20;;;;;;5048703;28;20028;-85
2023/08/20 08:31:39;;;;;;;0.00;0.00;;;37.90;62.50;;;;;;5023656;28;20092;-85
2023/08/20 08:34:04;;;;;;;0.00;0.00;;;38.60;61.60;;;;;;5046390;28;20111;-86
2023/08/20 08:36:30;;;;;;;0.00;0.00;;;38.60;61.90;;;;;;5024971;28;20086;-85
2023/08/20 08:38:56;;;;;;;0.00;0.00;;;39.60;61.50;;;;;;5046742;28;20024;-85
2023/08/20 08:41:25;;;;;;;0.70;0.70;;;39.80;62.60;;;;;;5030292;28;20041;-84
2023/08/20 08:43:51;;;;;;;0.00;0.00;;;39.90;59.50;;;;;;5047754;28;20031;-86
2023/08/20 08:46:17;;;;;;;0.00;0.00;;;39.70;58.50;;;;;;5042588;28;20025;-86
2023/08/20 08:48:46;;;;;;;0.00;0.00;;;40.30;58.50;;;;;;5029026;28;20024;-86
2023/08/20 08:51:13;;;;;;;0.03;0.03;;;40.40;59.40;;;;;;5027349;28;20033;-86
2023/08/20 08:53:39;;;;;;;0.22;0.22;;;39.40;54.60;;;;;;5040696;28;20045;-88
2023/08/20 08:56:08;;;;;;;0.00;0.00;;;39.60;57.20;;;;;;5027209;28;20091;-86
2023/08/20 08:58:36;;;;;;;0.00;0.00;;;40.50;56.20;;;;;;5041435;28;20028;-91
2023/08/20 09:01:04;;;;;;;0.00;0.00;;;40.40;56.60;;;;;;5027765;28;20036;-90
2023/08/20 09:03:30;;;;;;;0.00;0.00;;;41.10;55.40;;;;;;5040777;28;20562;-90
2023/08/20 09:06:00;;;;;;;0.00;0.00;;;39.50;54.50;;;;;;5027514;28;20854;-88
2023/08/20 09:08:32;;;;;;;0.00;0.00;;;40.90;54.50;;;;;;5025551;28;20022;-94
2023/08/20 09:10:59;;;;;;;0.00;0.00;;;40.80;53.50;;;;;;5016193;28;20030;-91
2023/08/20 09:13:36;;;;;;;0.00;0.00;;;40.30;54.10;;;;;;5025487;28;20061;-90
2023/08/20 09:16:09;;;;;;;0.00;0.00;;;40.80;52.60;;;;;;5024542;28;20033;-92
2023/08/20 09:18:43;;;;;;;0.00;0.00;;;41.30;53.50;;;;;;5014875;28;20025;-91
2023/08/20 09:21:11;;;;;;;0.00;0.00;;;41.20;52.90;;;;;;5041083;28;20470;-90
2023/08/20 09:23:38;;;;;;;0.43;0.43;;;40.90;55.50;;;;;;5027326;28;20039;-88
2023/08/20 09:26:06;;;;;;;0.00;0.00;;;41.60;52.40;;;;;;5027149;28;20056;-89
2023/08/20 09:28:44;;;;;;;0.13;0.13;;;41.50;55.00;;;;;;5024219;28;20502;-90
2023/08/20 09:31:12;;;;;;;0.00;0.00;;;40.80;52.20;;;;;;5018844;28;20025;-90
2023/08/20 09:33:52;;;;;;;0.00;0.00;;;40.90;53.20;;;;;;5021596;28;20035;-91
2023/08/20 09:36:18;;;;;;;0.00;0.00;;;41.30;52.60;;;;;;5018055;28;20021;-91
2023/08/20 09:38:44;;;;;;;0.00;0.00;;;41.20;52.40;;;;;;5037413;28;20031;-90
2023/08/20 09:41:11;;;;;;;0.00;0.00;;;40.90;51.50;;;;;;5019180;28;20037;-89
2023/08/20 09:43:39;;;;;;;0.00;0.00;;;40.60;51.10;;;;;;5038632;28;20025;-90
2023/08/20 09:46:10;;;;;;;0.00;0.00;;;41.50;54.00;;;;;;5015601;28;20032;-90
2023/08/20 09:48:41;;;;;;;6.90;1.08;;;41.40;52.20;;;;;;5043517;28;20526;-90
2023/08/20 09:51:12;;;;;;;0.00;0.00;;;40.90;54.10;;;;;;5025767;28;20068;-90
2023/08/20 09:53:49;;;;;;;0.05;0.05;;;41.70;51.30;;;;;;5044897;28;20056;-90
2023/08/20 09:56:31;;;;;;;0.00;0.00;;;40.00;51.80;;;;;;5028122;28;20030;-91
2023/08/20 09:59:00;;;;;;;0.00;0.00;;;41.60;53.40;;;;;;5017744;28;20032;-90
2023/08/20 10:01:27;;;;;;;0.00;0.00;;;41.90;51.50;;;;;;5041991;28;20047;-89
2023/08/20 10:03:54;;;;;;;0.32;0.32;;;42.00;52.40;;;;;;5032189;28;20465;-89
2023/08/20 10:06:20;;;;;;;0.00;0.00;;;41.40;51.50;;;;;;5041386;28;20041;-90
2023/08/20 10:08:46;;;;;;;0.00;0.00;;;40.70;51.90;;;;;;5041040;28;20029;-90
2023/08/20 10:11:13;;;;;;;0.00;0.00;;;42.00;53.90;;;;;;5028667;28;20036;-90
2023/08/20 10:13:39;;;;;;;4.95;0.47;;;42.40;52.10;;;;;;5042251;28;20170;-89
2023/08/20 10:16:05;;;;;;;0.10;0.10;;;42.50;53.30;;;;;;5045086;28;20035;-90
2023/08/20 10:18:34;;;;;;;0.00;0.00;;;42.60;52.40;;;;;;5028329;28;20021;-90
2023/08/20 10:21:02;;;;;;;0.10;0.10;;;42.10;54.40;;;;;;5050909;28;20214;-89
2023/08/20 10:23:27;;;;;;;0.00;0.00;;;42.10;53.60;;;;;;5025232;28;20056;-90
2023/08/20 10:25:53;;;;;;;0.00;0.00;;;41.00;54.10;;;;;;5027595;28;20064;-90
2023/08/20 10:28:30;;;;;;;0.00;0.00;;;38.90;54.60;;;;;;5029403;28;20052;-89
2023/08/20 10:31:13;;;;;;;0.00;0.00;;;38.00;59.30;;;;;;5023360;28;20033;-89
2023/08/20 10:33:49;;;;;;;0.00;0.00;;;37.60;63.50;;;;;;5049166;28;20021;-90
2023/08/20 10:36:22;;;;;;;0.00;0.00;;;37.10;65.40;;;;;;5031650;28;20036;-90
2023/08/20 10:38:49;;;;;;;0.00;0.00;;;36.90;65.30;;;;;;5030225;28;20035;-90
2023/08/20 10:41:16;;;;;;;0.00;0.00;;;36.70;67.60;;;;;;5040964;28;20029;-89
2023/08/20 10:43:49;;;;;;;0.00;0.00;;;36.30;66.30;;;;;;5026405;28;20119;-90
2023/08/20 10:46:23;;;;;;;0.00;0.00;;;36.00;71.30;;;;;;5030728;28;20053;-90
2023/08/20 10:48:50;;;;;;;0.00;0.00;;;35.70;70.30;;;;;;5031898;28;20036;-90
2023/08/20 10:51:35;;;;;;;0.00;0.00;;;35.20;69.90;;;;;;5032085;28;20043;-90
2023/08/20 10:54:01;;;;;;;0.00;0.00;;;34.80;70.20;;;;;;5040304;28;20066;-89
2023/08/20 10:56:41;;;;;;;0.00;0.00;;;34.40;68.90;;;;;;5045172;28;20033;-90
2023/08/20 10:59:09;;;;;;;0.00;0.00;;;34.80;75.00;;;;;;5046103;28;20037;-90
2023/08/20 11:01:35;;;;;;;0.00;0.00;;;34.80;78.90;;;;;;5045766;28;20524;-92
2023/08/20 11:04:04;;;;;;;0.08;0.00;;;34.90;72.60;;;;;;5045188;28;20034;-88
2023/08/20 11:06:33;;;;;;;0.00;0.00;;;34.50;71.00;;;;;;5049692;28;20809;-88
2023/08/20 11:08:59;;;;;;;0.63;0.25;;;34.20;71.40;;;;;;5037030;28;20040;-92
2023/08/20 11:11:25;;;;;;;;;;;34.50;75.70;;;;;;5034400;28;20037;-88
2023/08/20 11:13:51;;;;;;;0.00;0.00;;;34.40;77.20;;;;;;5051721;28;19923;-91
2023/08/20 11:16:16;;;;;;;;;;;34.20;77.70;;;;;;5033343;28;20041;-90
2023/08/20 11:18:42;;;;;;;2.67;1.80;;;34.30;77.30;;;;;;5045632;28;19919;-91
2023/08/20 11:21:08;;;;;;;;;;;34.30;77.40;;;;;;5035950;28;20450;-88
2023/08/20 11:23:34;;;;;;;0.00;0.00;;;34.30;76.40;;;;;;5045504;28;19913;-90
2023/08/20 11:26:00;;;;;;;0.00;0.00;;;34.20;76.20;;;;;;5049174;28;20029;-87
2023/08/20 11:28:27;;;;;;;;;;;33.80;76.00;;;;;;5048086;28;20041;-87
2023/08/20 11:30:54;;;;;;;0.00;0.00;;;33.70;71.20;;;;;;5025789;28;19923;-88
2023/08/20 11:33:21;;;;;;;0.20;0.20;;;33.90;75.60;;;;;;5022970;28;20060;-86
2023/08/20 11:35:47;;;;;;;0.00;0.00;;;34.10;74.70;;;;;;5041669;28;20017;-88
2023/08/20 11:38:13;;;;;;;;;;;33.60;71.70;;;;;;5044285;28;20079;-86
2023/08/20 11:40:38;;;;;;;0.00;0.00;;;33.60;75.00;;;;;;5023056;28;19909;-86
2023/08/20 11:43:04;;;;;;;;;;;33.40;73.00;;;;;;5029241;28;20029;-87
2023/08/20 11:45:32;;;;;;;0.00;0.00;;;33.50;77.70;;;;;;5031863;28;19983;-87
2023/08/20 11:47:58;;;;;;;0.00;0.00;;;33.60;71.70;;;;;;5046550;28;20235;-84
2023/08/20 11:50:23;;;;;;;;;;;33.40;74.10;;;;;;5029684;28;20029;-86
2023/08/20 11:52:51;;;;;;;0.00;0.00;;;32.90;72.00;;;;;;5021781;28;19920;-85
2023/08/20 11:55:23;;;;;;;0.00;0.00;;;33.30;76.90;;;;;;5039786;28;20060;-83
2023/08/20 11:57:54;;;;;;;0.00;0.00;;;33.40;78.30;;;;;;5035555;28;20099;-84
2023/08/20 12:00:28;;;;;;;0.00;0.00;;;33.40;76.80;;;;;;5045351;28;20579;-86
2023/08/20 12:02:55;;;;;;;0.00;0.00;;;33.20;72.20;;;;;;5023990;28;20120;-86
2023/08/20 12:05:29;;;;;;;0.00;0.00;;;33.20;74.10;;;;;;5022382;28;20060;-89
2023/08/20 12:08:00;;;;;;;0.00;0.00;;;33.20;72.90;;;;;;5042233;28;20043;-87
2023/08/20 12:10:27;;;;;;;0.00;0.00;;;33.20;69.10;;;;;;5030151;28;20470;-85
2023/08/20 12:12:54;;;;;;;0.00;0.00;;;32.80;68.00;;;;;;5019357;28;20042;-84
2023/08/20 12:15:20;;;;;;;0.10;0.10;;;33.00;73.10;;;;;;5022311;28;20542;-86
2023/08/20 12:18:00;;;;;;;0.55;0.55;;;32.80;70.90;;;;;;5042723;28;20037;-87
2023/08/20 12:20:29;;;;;;;0.00;0.00;;;33.00;69.60;;;;;;5026202;28;20037;-88
2023/08/20 12:22:57;;;;;;;0.00;0.00;;;32.90;60.30;;;;;;5022333;28;20104;-88
2023/08/20 12:25:23;;;;;;;0.00;0.00;;;32.60;62.30;;;;;;5024371;28;20783;-88
2023/08/20 12:27:51;;;;;;;0.00;0.00;;;32.60;67.80;;;;;;5040249;28;20033;-89
2023/08/20 12:30:17;;;;;;;0.00;0.00;;;32.80;73.20;;;;;;5036419;28;20033;-89
2023/08/20 12:32:43;;;;;;;0.00;0.00;;;32.50;59.90;;;;;;5046693;28;20052;-88
2023/08/20 12:35:17;;;;;;;;;;;32.40;61.50;;;;;;5021724;28;20037;-90
2023/08/20 12:37:43;;;;;;;0.00;0.00;;;32.40;64.20;;;;;;5034719;28;20002;-91
2023/08/20 12:40:11;;;;;;;0.08;0.08;;;32.40;60.70;;;;;;5025016;28;20037;-88
2023/08/20 12:42:38;;;;;;;0.38;0.38;;;32.50;71.70;;;;;;5024421;28;20032;-93
2023/08/20 12:45:06;;;;;;;0.28;0.28;;;32.40;69.80;;;;;;5018410;28;20802;-91
2023/08/20 12:47:32;;;;;;;0.00;0.00;;;32.40;71.80;;;;;;5025070;28;20540;-92
2023/08/20 12:49:57;;;;;;;0.00;0.00;;;32.40;72.80;;;;;;5026134;28;20056;-90